Simcha — PE7688 — position and weather

sailwx.info

Track history (hours):
 
Tides and Currents Weather Stations Pressure Air Temp Water Temp Dewpoint Dewpoint Depression Visibility Wind Speed Wind Dir Waves Ship Positions

Simcha

Last reported at 2015-Mar-20 00:31 UTC. Time now 2015-Mar-29 04:22 UTC.
Position N 51°09' E 006°48'.
Warning: this ship's position is 9 days out of date.

Length 110 m.

Type: Ship. MMSI: 244780014.

Date/timePositionNaut miles runAvg speedWind from/ knotsBaromVisibWave heightAir tempDewpointWater temp
2015-Mar-20 00:31N 51°09' E 006°48'3 3.2
2015-Mar-19 23:33N 51°11' E 006°45'2 2.3
2015-Mar-19 22:33N 51°13' E 006°45'68 3.4
2015-Mar-19 02:33N 51°57' E 005°22'5 4.8
2015-Mar-19 01:33N 51°59' E 005°16'6 6.3
2015-Mar-19 00:34N 52°02' E 005°07'5 4.7
2015-Mar-18 23:34N 52°07' E 005°05'7 3.4
2015-Mar-18 21:32N 52°13' E 005°00'7 7.0
2015-Mar-18 20:33N 52°20' E 005°01'6 5.7
2015-Mar-18 19:33N 52°24' E 004°53'6 5.6
2015-Mar-18 18:33N 52°25' E 004°45'0 0.4
2015-Mar-18 17:34N 52°25' E 004°44'0 0.0
2015-Mar-18 16:31N 52°25' E 004°44'0 0.1
2015-Mar-18 15:34N 52°25' E 004°44'0 0.0
2015-Mar-18 14:33N 52°25' E 004°44'0 0.0
2015-Mar-18 13:34N 52°25' E 004°44'0 0.0
2015-Mar-18 12:33N 52°25' E 004°44'0 0.0
2015-Mar-18 11:33N 52°25' E 004°44'0 0.0
2015-Mar-18 10:33N 52°25' E 004°44'0 0.0
2015-Mar-18 09:34N 52°25' E 004°44'0 0.0
2015-Mar-18 08:33N 52°25' E 004°44'0 0.0
2015-Mar-18 07:33N 52°25' E 004°45'5 5.2
2015-Mar-18 06:34N 52°24' E 004°53'3 2.7
2015-Mar-18 05:33N 52°23' E 004°57'0 0.0
2015-Mar-18 04:33N 52°23' E 004°57'0 0.0
2015-Mar-18 03:33N 52°23' E 004°57'0 0.0
2015-Mar-18 02:33N 52°23' E 004°57'0 0.0
2015-Mar-18 01:33N 52°23' E 004°57'0 0.0
2015-Mar-18 00:33N 52°23' E 004°57'0 0.0
2015-Mar-17 23:33N 52°23' E 004°57'0 0.0
2015-Mar-17 22:33N 52°23' E 004°57'3 3.1
2015-Mar-17 21:33N 52°22' E 005°02'8 7.5
2015-Mar-17 20:33N 52°26' E 005°12'20 6.5
2015-Mar-17 17:29N 52°42' E 005°32'51 4.6
2015-Mar-17 06:22N 53°14' E 006°39'5 6.8
2015-Mar-17 05:33N 53°17' E 006°46'6 6.1
2015-Mar-17 04:34N 53°19' E 006°56'0 0.0
2015-Mar-17 03:33N 53°19' E 006°56'0 0.0
2015-Mar-17 02:33N 53°19' E 006°56'0 0.0
2015-Mar-17 01:33N 53°19' E 006°56'0 0.0
2015-Mar-17 00:33N 53°19' E 006°56'0 0.0
2015-Mar-16 23:33N 53°19' E 006°56'0 0.0
2015-Mar-16 22:33N 53°19' E 006°56'0 0.0
2015-Mar-16 21:33N 53°19' E 006°56'0 0.4
2015-Mar-16 20:33N 53°19' E 006°56'3 3.5
2015-Mar-16 19:33N 53°23' E 006°58'7 6.6
2015-Mar-16 18:32N 53°27' E 006°50'0 0.0
2015-Mar-16 17:33N 53°27' E 006°50'0 0.0
2015-Mar-16 16:33N 53°27' E 006°50'0 0.0
2015-Mar-16 15:33N 53°27' E 006°50'0 0.0
2015-Mar-16 14:33N 53°27' E 006°50'0 0.0
2015-Mar-16 13:33N 53°27' E 006°50'0 0.0
2015-Mar-16 12:33N 53°27' E 006°50'0 0.0
2015-Mar-16 11:33N 53°27' E 006°50'0 0.0
2015-Mar-16 10:33N 53°27' E 006°50'0 0.0
2015-Mar-16 09:33N 53°27' E 006°50'0 0.0
2015-Mar-16 08:33N 53°27' E 006°50'0 0.0
2015-Mar-16 07:33N 53°27' E 006°50'0 0.0
2015-Mar-16 06:33N 53°27' E 006°50'0 0.0
2015-Mar-16 05:33N 53°27' E 006°50'0 0.0
2015-Mar-16 04:33N 53°27' E 006°50'0 0.0
2015-Mar-16 03:33N 53°27' E 006°50'0 0.0
2015-Mar-16 02:33N 53°27' E 006°50'0 0.0
2015-Mar-16 01:33N 53°27' E 006°50'0 0.0
2015-Mar-16 00:33N 53°27' E 006°50'0 0.0
2015-Mar-15 23:33N 53°27' E 006°50'0 0.0
2015-Mar-15 22:33N 53°27' E 006°50'0 0.0
2015-Mar-15 21:33N 53°27' E 006°50'0 0.0
2015-Mar-15 20:33N 53°27' E 006°50'6 6.0
2015-Mar-15 19:33N 53°23' E 006°58'4 4.3
2015-Mar-15 18:33N 53°19' E 006°56'0 0.3
2015-Mar-15 17:33N 53°19' E 006°56'0 0.0
2015-Mar-15 16:33N 53°19' E 006°56'3 3.2
2015-Mar-15 15:33N 53°18' E 006°51'5 5.3
2015-Mar-15 14:32N 53°16' E 006°43'5 4.9
2015-Mar-15 13:33N 53°14' E 006°36'47 1.9
2015-Mar-14 13:22N 52°44' E 005°34'5 5.8
2015-Mar-14 12:27N 52°39' E 005°34'11 5.8
2015-Mar-14 10:33N 52°35' E 005°51'6 5.8
2015-Mar-14 09:33N 52°31' E 005°58'  
Track history (hours):
 
Tides and Currents Weather Stations Pressure Air Temp Water Temp Dewpoint Dewpoint Depression Visibility Wind Speed Wind Dir Waves Ship Positions

Simcha

Last reported at 2015-Mar-20 00:31 UTC. Time now 2015-Mar-29 04:22 UTC.
Position N 51°09' E 006°48'.
Warning: this ship's position is 9 days out of date.

Length 110 m.

Type: Ship. MMSI: 244780014.

Date/timePositionNaut miles runAvg speedWind from/ knotsBaromVisibWave heightAir tempDewpointWater temp
2015-Mar-20 00:31N 51°09' E 006°48'3 3.2
2015-Mar-19 23:33N 51°11' E 006°45'2 2.3
2015-Mar-19 22:33N 51°13' E 006°45'68 3.4
2015-Mar-19 02:33N 51°57' E 005°22'5 4.8
2015-Mar-19 01:33N 51°59' E 005°16'6 6.3
2015-Mar-19 00:34N 52°02' E 005°07'5 4.7
2015-Mar-18 23:34N 52°07' E 005°05'7 3.4
2015-Mar-18 21:32N 52°13' E 005°00'7 7.0
2015-Mar-18 20:33N 52°20' E 005°01'6 5.7
2015-Mar-18 19:33N 52°24' E 004°53'6 5.6
2015-Mar-18 18:33N 52°25' E 004°45'0 0.4
2015-Mar-18 17:34N 52°25' E 004°44'0 0.0
2015-Mar-18 16:31N 52°25' E 004°44'0 0.1
2015-Mar-18 15:34N 52°25' E 004°44'0 0.0
2015-Mar-18 14:33N 52°25' E 004°44'0 0.0
2015-Mar-18 13:34N 52°25' E 004°44'0 0.0
2015-Mar-18 12:33N 52°25' E 004°44'0 0.0
2015-Mar-18 11:33N 52°25' E 004°44'0 0.0
2015-Mar-18 10:33N 52°25' E 004°44'0 0.0
2015-Mar-18 09:34N 52°25' E 004°44'0 0.0
2015-Mar-18 08:33N 52°25' E 004°44'0 0.0
2015-Mar-18 07:33N 52°25' E 004°45'5 5.2
2015-Mar-18 06:34N 52°24' E 004°53'3 2.7
2015-Mar-18 05:33N 52°23' E 004°57'0 0.0
2015-Mar-18 04:33N 52°23' E 004°57'0 0.0
2015-Mar-18 03:33N 52°23' E 004°57'0 0.0
2015-Mar-18 02:33N 52°23' E 004°57'0 0.0
2015-Mar-18 01:33N 52°23' E 004°57'0 0.0
2015-Mar-18 00:33N 52°23' E 004°57'0 0.0
2015-Mar-17 23:33N 52°23' E 004°57'0 0.0
2015-Mar-17 22:33N 52°23' E 004°57'3 3.1
2015-Mar-17 21:33N 52°22' E 005°02'8 7.5
2015-Mar-17 20:33N 52°26' E 005°12'20 6.5
2015-Mar-17 17:29N 52°42' E 005°32'51 4.6
2015-Mar-17 06:22N 53°14' E 006°39'5 6.8
2015-Mar-17 05:33N 53°17' E 006°46'6 6.1
2015-Mar-17 04:34N 53°19' E 006°56'0 0.0
2015-Mar-17 03:33N 53°19' E 006°56'0 0.0
2015-Mar-17 02:33N 53°19' E 006°56'0 0.0
2015-Mar-17 01:33N 53°19' E 006°56'0 0.0
2015-Mar-17 00:33N 53°19' E 006°56'0 0.0
2015-Mar-16 23:33N 53°19' E 006°56'0 0.0
2015-Mar-16 22:33N 53°19' E 006°56'0 0.0
2015-Mar-16 21:33N 53°19' E 006°56'0 0.4
2015-Mar-16 20:33N 53°19' E 006°56'3 3.5
2015-Mar-16 19:33N 53°23' E 006°58'7 6.6
2015-Mar-16 18:32N 53°27' E 006°50'0 0.0
2015-Mar-16 17:33N 53°27' E 006°50'0 0.0
2015-Mar-16 16:33N 53°27' E 006°50'0 0.0
2015-Mar-16 15:33N 53°27' E 006°50'0 0.0
2015-Mar-16 14:33N 53°27' E 006°50'0 0.0
2015-Mar-16 13:33N 53°27' E 006°50'0 0.0
2015-Mar-16 12:33N 53°27' E 006°50'0 0.0
2015-Mar-16 11:33N 53°27' E 006°50'0 0.0
2015-Mar-16 10:33N 53°27' E 006°50'0 0.0
2015-Mar-16 09:33N 53°27' E 006°50'0 0.0
2015-Mar-16 08:33N 53°27' E 006°50'0 0.0
2015-Mar-16 07:33N 53°27' E 006°50'0 0.0
2015-Mar-16 06:33N 53°27' E 006°50'0 0.0
2015-Mar-16 05:33N 53°27' E 006°50'0 0.0
2015-Mar-16 04:33N 53°27' E 006°50'0 0.0
2015-Mar-16 03:33N 53°27' E 006°50'0 0.0
2015-Mar-16 02:33N 53°27' E 006°50'0 0.0
2015-Mar-16 01:33N 53°27' E 006°50'0 0.0
2015-Mar-16 00:33N 53°27' E 006°50'0 0.0
2015-Mar-15 23:33N 53°27' E 006°50'0 0.0
2015-Mar-15 22:33N 53°27' E 006°50'0 0.0
2015-Mar-15 21:33N 53°27' E 006°50'0 0.0
2015-Mar-15 20:33N 53°27' E 006°50'6 6.0
2015-Mar-15 19:33N 53°23' E 006°58'4 4.3
2015-Mar-15 18:33N 53°19' E 006°56'0 0.3
2015-Mar-15 17:33N 53°19' E 006°56'0 0.0
2015-Mar-15 16:33N 53°19' E 006°56'3 3.2
2015-Mar-15 15:33N 53°18' E 006°51'5 5.3
2015-Mar-15 14:32N 53°16' E 006°43'5 4.9
2015-Mar-15 13:33N 53°14' E 006°36'47 1.9
2015-Mar-14 13:22N 52°44' E 005°34'5 5.8
2015-Mar-14 12:27N 52°39' E 005°34'11 5.8
2015-Mar-14 10:33N 52°35' E 005°51'6 5.8
2015-Mar-14 09:33N 52°31' E 005°58'  

Dump ship's entire track history